Nearby METAR Reports

 

KSJC - San Jose, California, USA
Distance from station: NØ 14km
Oppdatert: 02/08/2021 17:39
unable to load KSJC data RC=
unable to load KSJC data RC=
 
KNUQ - Moffett Nas/Mtn, California, USA
Distance from station: N 14km
Oppdatert: 02/08/2021 17:35
Overskyet
Overskyet
 Vind fra calm
Vind: Stille
Temperatur: 17°C
Duggpunkt: 13°C
Fuktighet: 77%
Barometer: 1020 hPa
Clouds: Overskyet
Visibility: 16 km
Cloud details: Overskyet 488 m
2021/08/02 15:35 KNUQ 021535Z AUTO 00000KT 10SM OVC016 17/13 A3012 RMK AO2
 
KPAO - Palo Alto, California, USA
Distance from station: NNV 23km
Oppdatert: 02/08/2021 16:47
Overskyet
Overskyet
 Vind fra calm
Vind: Stille
Temperatur: 14°C
Duggpunkt: 12°C
Fuktighet: 88%
Barometer: 1020.3 hPa
Clouds: Overskyet
Visibility: 16 km
Cloud details: Overskyet 457 m
2021/08/02 14:47 KPAO 021447Z 00000KT 10SM OVC015 14/12 A3013
KRHV - San Jose/Reid, California, USA
Distance from station: ØNØ 19km
Oppdatert: 02/08/2021 16:47
Few Clouds
Few Clouds
 Vind fra calm
Vind: Stille
Temperatur: 15°C
Duggpunkt: 11°C
Fuktighet: 77%
Barometer: 1020.3 hPa
Clouds: Few Clouds
Visibility: 16 km
Cloud details: Few Clouds 4572 m
2021/08/02 14:47 KRHV 021447Z 00000KT 10SM FEW150 15/11 A3013
 
KOAK - Oakland, California, USA
Distance from station: NNV 50km
Oppdatert: 02/08/2021 16:53
Hovedsaklig skyet
Hovedsaklig skyet
 Vind fra VNV
Vind: VNV 11 km/h
Temperatur: 17°C
Duggpunkt: 12°C
Fuktighet: 73%
Barometer: 1020.3 hPa
Clouds: Hovedsaklig skyet
Visibility: 16 km
Cloud details: Few Clouds 244 m
Hovedsaklig skyet 579 m
Hovedsaklig skyet 5486 m
2021/08/02 14:53 KOAK 021453Z 30006KT 10SM FEW008 BKN019 BKN180 17/12 A3013 RMK AO2 SLP202 T01670117 53015
KSQL - San Carlos Airpo, California, USA
Distance from station: NV 34km
Oppdatert: 02/08/2021 16:47
Hovedsaklig skyet
Hovedsaklig skyet
 Vind fra calm
Vind: Stille
Temperatur: 15°C
Duggpunkt: 12°C
Fuktighet: 82%
Barometer: 1020.3 hPa
Clouds: Hovedsaklig skyet
Visibility: 16 km
Cloud details: Hovedsaklig skyet 457 m
2021/08/02 14:47 KSQL 021447Z 00000KT 10SM BKN015 15/12 A3013
 
KSFO - San Francisco, California, USA
Distance from station: NV 49km
Oppdatert: 02/08/2021 17:02
Hovedsaklig skyet
Hovedsaklig skyet
 Vind fra calm
Vind: Stille
Temperatur: 17°C
Duggpunkt: 12°C
Fuktighet: 73%
Barometer: 1020 hPa
Clouds: Hovedsaklig skyet
Visibility: 16 km
Cloud details: Few Clouds 183 m
Hovedsaklig skyet 640 m
Hovedsaklig skyet 4877 m
2021/08/02 15:02 KSFO 021502Z 00000KT 10SM FEW006 BKN021 BKN160 17/12 A3012 RMK AO2 T01670117 $
KE16 - San Martin, California, USA
Distance from station: ØSØ 43km
Oppdatert: 02/08/2021 17:35
Hovedsaklig skyet
Hovedsaklig skyet
 Vind fra Ø
Vind: Ø 6 km/h
Temperatur: 14°C
Duggpunkt: 12°C
Fuktighet: 88%
Barometer: 1020.7 hPa
Clouds: Hovedsaklig skyet
Visibility: 16 km
Cloud details: Hovedsaklig skyet 244 m
2021/08/02 15:35 KE16 021535Z AUTO 10003KT 10SM BKN008 14/12 A3014 RMK AO2 PWINO PNO
 
KWVI - Watsonville, California, USA
Distance from station: SSØ 44km
Oppdatert: 02/08/2021 17:13
Hovedsaklig skyet
Hovedsaklig skyet
 Vind fra SSØ
Vind: SSØ 6 km/h
Temperatur: 16°C
Duggpunkt: 13°C
Fuktighet: 83%
Barometer: 1020.3 hPa
Clouds: Hovedsaklig skyet
Visibility: 16 km
Cloud details: Hovedsaklig skyet 366 m
2021/08/02 15:13 KWVI 021513Z AUTO 15003KT 10SM BKN012 16/13 A3013 RMK AO2 T01610128
KHAF - Half Moon Bay, California, USA
Distance from station: VNV 50km
Oppdatert: 09/07/2021 16:35
NOT Current
Lett regn, Klart
Lett regn, Klart
 
Temperatur: 13°C
Duggpunkt: 12°C
Fuktighet: 94%
Barometer: 1012.9 hPa
Oversikt: Lett regn
Clouds: Klart
Visibility: 6 km
2021/07/09 14:35 KHAF 091435Z AUTO 4SM -RA CLR 13/12 A2991 RMK AO2
 
KHWD - Hayward, California, USA
Distance from station: N 44km
Oppdatert: 02/08/2021 16:54
Hovedsaklig skyet
Hovedsaklig skyet
 Vind fra NV
Vind: NV 11 km/h
Temperatur: 17°C
Duggpunkt: 12°C
Fuktighet: 73%
Barometer: 1020 hPa
Clouds: Hovedsaklig skyet
Visibility: 16 km
Cloud details: Hovedsaklig skyet 518 m
2021/08/02 14:54 KHWD 021454Z 32006KT 10SM BKN017 17/12 A3012 RMK AO2 SLP207 T01670122 53015
KLVK - Livermore, California, USA
Distance from station: NNØ 51km
Oppdatert: 02/08/2021 16:53
Overskyet
Overskyet
 Vind fra calm
Vind: Stille
Temperatur: 15°C
Duggpunkt: 12°C
Fuktighet: 82%
Barometer: 1019.6 hPa
Clouds: Overskyet
Visibility: 16 km
Cloud details: Overskyet 396 m
2021/08/02 14:53 KLVK 021453Z 00000KT 10SM OVC013 15/12 A3011 RMK AO2 SLP194 T01500122 51015